createdAt,value
2023-05-03T00:01:20.115Z,8.84
2023-05-03T00:03:46.904Z,8.87
2023-05-03T00:06:17.761Z,8.86
2023-05-03T00:08:44.332Z,8.84
2023-05-03T00:11:10.928Z,8.80
2023-05-03T00:13:37.956Z,8.75
2023-05-03T00:16:04.839Z,8.71
2023-05-03T00:18:32.201Z,8.77
2023-05-03T00:20:59.579Z,8.73
2023-05-03T00:23:28.306Z,8.75
2023-05-03T00:25:57.088Z,8.72
2023-05-03T00:28:24.673Z,8.61
2023-05-03T00:30:52.207Z,8.68
2023-05-03T00:33:18.847Z,8.47
2023-05-03T00:35:45.745Z,8.66
2023-05-03T00:38:14.373Z,8.54
2023-05-03T00:40:41.158Z,8.61
2023-05-03T00:43:07.841Z,8.45
2023-05-03T00:45:35.337Z,8.46
2023-05-03T00:48:02.147Z,8.51
2023-05-03T00:50:29.587Z,8.40
2023-05-03T00:52:56.480Z,8.44
2023-05-03T00:55:23.860Z,8.32
2023-05-03T00:57:50.328Z,8.30
2023-05-03T01:00:18.231Z,8.31
2023-05-03T01:02:44.950Z,8.28
2023-05-03T01:05:11.923Z,8.36
2023-05-03T01:08:00.931Z,8.37
2023-05-03T01:10:53.136Z,8.35
2023-05-03T01:13:28.493Z,8.31
2023-05-03T01:16:21.773Z,8.28
2023-05-03T01:18:51.010Z,8.21
2023-05-03T01:21:19.511Z,8.19
2023-05-03T01:24:09.763Z,8.11
2023-05-03T01:26:36.242Z,8.08
2023-05-03T01:29:03.385Z,8.10
2023-05-03T01:31:37.301Z,8.11
2023-05-03T01:34:31.735Z,8.11
2023-05-03T01:37:00.038Z,8.08
2023-05-03T01:39:37.546Z,8.04
2023-05-03T01:42:05.657Z,7.96
2023-05-03T01:44:33.619Z,7.92
2023-05-03T01:47:01.678Z,7.95
2023-05-03T01:49:28.241Z,7.98
2023-05-03T01:51:54.714Z,7.89
2023-05-03T01:54:22.074Z,7.87
2023-05-03T01:56:48.573Z,7.74
2023-05-03T01:59:15.211Z,7.87
2023-05-03T02:01:41.960Z,7.80
2023-05-03T02:04:08.987Z,7.86
2023-05-03T02:06:36.270Z,7.82
2023-05-03T02:09:03.416Z,7.82
2023-05-03T02:11:30.082Z,7.79
2023-05-03T02:13:56.597Z,7.77
2023-05-03T02:16:23.177Z,7.62
2023-05-03T02:18:49.684Z,7.64
2023-05-03T02:21:16.246Z,7.60
2023-05-03T02:23:42.722Z,7.67
2023-05-03T02:26:09.577Z,7.59
2023-05-03T02:28:36.188Z,7.55
2023-05-03T02:31:05.916Z,7.58
2023-05-03T02:33:32.579Z,7.56
2023-05-03T02:36:02.111Z,7.50
2023-05-03T02:38:31.424Z,7.54
2023-05-03T02:40:57.993Z,7.54
2023-05-03T02:43:24.542Z,7.33
2023-05-03T02:45:51.228Z,7.43
2023-05-03T02:48:18.279Z,7.26
2023-05-03T02:50:44.819Z,7.31
2023-05-03T02:53:11.710Z,7.36
2023-05-03T02:55:38.399Z,7.37
2023-05-03T02:58:04.917Z,7.38
2023-05-03T03:00:33.913Z,7.30
2023-05-03T03:03:00.604Z,7.32
2023-05-03T03:05:27.226Z,7.28
2023-05-03T03:07:54.730Z,7.19
2023-05-03T03:10:21.347Z,7.27
2023-05-03T03:12:47.974Z,7.25
2023-05-03T03:15:14.621Z,7.21
2023-05-03T03:17:43.729Z,7.20
2023-05-03T03:20:13.389Z,7.12
2023-05-03T03:22:40.301Z,7.18
2023-05-03T03:25:07.649Z,7.06
2023-05-03T03:27:34.215Z,7.14
2023-05-03T03:30:01.112Z,7.07
2023-05-03T03:32:28.257Z,7.04
2023-05-03T03:34:57.593Z,7.09
2023-05-03T03:37:24.406Z,7.07
2023-05-03T03:39:50.913Z,7.05
2023-05-03T03:42:19.076Z,6.89
2023-05-03T03:44:45.776Z,7.00
2023-05-03T03:47:12.511Z,6.98
2023-05-03T03:49:39.182Z,6.95
2023-05-03T03:52:06.453Z,6.83
2023-05-03T03:54:34.618Z,6.86
2023-05-03T03:57:02.788Z,6.84
2023-05-03T03:59:30.189Z,6.89
2023-05-03T04:01:57.054Z,6.87
2023-05-03T04:04:23.724Z,6.81
2023-05-03T04:06:50.405Z,6.73
2023-05-03T04:09:17.655Z,6.80
2023-05-03T04:11:45.264Z,6.80
2023-05-03T04:14:11.867Z,6.77
2023-05-03T04:16:38.406Z,6.74
2023-05-03T04:19:05.194Z,6.75
2023-05-03T04:21:32.723Z,6.70
2023-05-03T04:24:00.350Z,6.70
2023-05-03T04:26:31.778Z,6.66
2023-05-03T04:28:59.855Z,6.69
2023-05-03T04:31:26.897Z,6.61
2023-05-03T04:33:53.724Z,6.60
2023-05-03T04:36:25.454Z,6.51
2023-05-03T04:38:52.542Z,6.56
2023-05-03T04:41:19.138Z,6.53
2023-05-03T04:43:46.311Z,6.54
2023-05-03T04:46:13.086Z,6.62
2023-05-03T04:48:42.283Z,6.56
2023-05-03T04:51:08.872Z,6.51
2023-05-03T04:53:35.431Z,6.59
2023-05-03T04:56:01.983Z,6.56
2023-05-03T04:58:28.476Z,6.61
2023-05-03T05:00:55.047Z,6.62
2023-05-03T05:03:21.881Z,6.60
2023-05-03T05:05:48.459Z,6.61
2023-05-03T05:08:14.985Z,6.60
2023-05-03T05:10:42.012Z,6.69
2023-05-03T05:13:08.795Z,6.69
2023-05-03T05:15:35.764Z,6.74
2023-05-03T05:18:02.415Z,6.68
2023-05-03T05:20:29.126Z,6.79
2023-05-03T05:22:55.808Z,6.72
2023-05-03T05:25:22.462Z,6.76
2023-05-03T05:27:48.949Z,6.95
2023-05-03T05:30:15.603Z,7.00
2023-05-03T05:32:42.195Z,7.03
2023-05-03T05:35:09.622Z,7.15
2023-05-03T05:37:36.305Z,7.20
2023-05-03T05:40:04.172Z,7.27
2023-05-03T05:42:31.086Z,7.38
2023-05-03T05:44:57.935Z,7.46
2023-05-03T05:47:24.575Z,7.61
2023-05-03T05:49:51.183Z,7.73
2023-05-03T05:52:17.780Z,7.97
2023-05-03T05:54:44.331Z,8.35
2023-05-03T05:57:12.665Z,8.68
2023-05-03T05:59:39.354Z,8.93
2023-05-03T06:02:13.422Z,9.07
2023-05-03T06:04:40.007Z,9.29
2023-05-03T06:07:06.850Z,9.36
2023-05-03T06:09:33.355Z,9.39
2023-05-03T06:11:59.910Z,9.31
2023-05-03T06:14:26.428Z,9.38
2023-05-03T06:16:54.015Z,9.40
2023-05-03T06:19:20.951Z,9.60
2023-05-03T06:21:47.445Z,9.74
2023-05-03T06:24:20.962Z,10.05
2023-05-03T06:26:48.631Z,10.26
2023-05-03T06:29:15.491Z,10.41
2023-05-03T06:31:42.196Z,10.54
2023-05-03T06:34:10.456Z,10.77
2023-05-03T06:36:37.860Z,10.90
2023-05-03T06:39:04.775Z,11.08
2023-05-03T06:41:32.943Z,11.24
2023-05-03T06:43:59.594Z,11.40
2023-05-03T06:46:27.936Z,11.57
2023-05-03T06:48:57.870Z,11.68
2023-05-03T06:51:33.062Z,11.74
2023-05-03T06:54:06.224Z,11.93
2023-05-03T06:56:34.067Z,11.91
2023-05-03T06:59:06.614Z,12.13
2023-05-03T07:01:34.002Z,12.24
2023-05-03T07:04:07.775Z,12.20
2023-05-03T07:06:54.690Z,12.36
2023-05-03T07:09:35.781Z,12.43
2023-05-03T07:12:09.649Z,12.53
2023-05-03T07:14:36.300Z,12.72
2023-05-03T07:17:02.876Z,12.71
2023-05-03T07:19:30.145Z,12.87
2023-05-03T07:21:59.201Z,12.95
2023-05-03T07:24:26.205Z,13.19
2023-05-03T07:26:54.154Z,13.25
2023-05-03T07:29:21.209Z,13.51
2023-05-03T07:31:47.880Z,13.66
2023-05-03T07:34:14.608Z,13.68
2023-05-03T07:36:41.527Z,13.70
2023-05-03T07:39:15.859Z,13.80
2023-05-03T07:41:42.406Z,13.98
2023-05-03T07:44:09.606Z,14.08
2023-05-03T07:46:40.157Z,14.25
2023-05-03T07:49:06.769Z,14.36
2023-05-03T07:51:37.692Z,14.41
2023-05-03T07:54:04.598Z,14.57
2023-05-03T07:56:31.615Z,14.78
2023-05-03T07:59:08.358Z,14.77
2023-05-03T08:01:36.888Z,14.82
2023-05-03T08:04:03.820Z,14.97
2023-05-03T08:06:31.949Z,14.97
2023-05-03T08:08:59.056Z,15.12
2023-05-03T08:11:27.428Z,15.17
2023-05-03T08:13:54.039Z,15.30
2023-05-03T08:16:21.639Z,15.40
2023-05-03T08:18:48.233Z,15.49
2023-05-03T08:21:15.324Z,15.67
2023-05-03T08:23:42.777Z,15.67
2023-05-03T08:26:10.101Z,15.86
2023-05-03T08:28:36.875Z,15.83
2023-05-03T08:31:06.998Z,15.89
2023-05-03T08:33:34.615Z,16.24
2023-05-03T08:36:01.672Z,16.33
2023-05-03T08:38:28.892Z,16.34
2023-05-03T08:41:02.542Z,16.59
2023-05-03T08:43:33.343Z,16.56
2023-05-03T08:45:59.953Z,16.61
2023-05-03T08:48:27.356Z,16.69
2023-05-03T08:50:57.878Z,16.69
2023-05-03T08:53:24.360Z,16.73
2023-05-03T08:55:51.041Z,16.75
2023-05-03T08:58:17.825Z,17.09
2023-05-03T09:00:49.154Z,17.20
2023-05-03T09:03:16.848Z,17.27
2023-05-03T09:05:44.492Z,17.40
2023-05-03T09:08:13.654Z,17.50
2023-05-03T09:10:43.485Z,17.41
2023-05-03T09:13:12.103Z,17.51
2023-05-03T09:15:38.813Z,17.77
2023-05-03T09:18:17.438Z,17.94
2023-05-03T09:20:52.656Z,17.97
2023-05-03T09:23:26.724Z,18.10
2023-05-03T09:25:53.284Z,18.41
2023-05-03T09:28:20.835Z,18.39
2023-05-03T09:30:48.833Z,18.59
2023-05-03T09:33:24.492Z,18.72
2023-05-03T09:36:05.019Z,18.94
2023-05-03T09:38:33.967Z,19.06
2023-05-03T09:41:06.261Z,19.09
2023-05-03T09:43:48.377Z,19.08
2023-05-03T09:46:15.422Z,19.42
2023-05-03T09:48:42.392Z,19.56
2023-05-03T09:51:11.793Z,19.55
2023-05-03T09:53:41.821Z,19.87
2023-05-03T09:56:12.538Z,19.79
2023-05-03T09:58:40.863Z,19.67
2023-05-03T10:01:08.823Z,19.90
2023-05-03T10:03:50.482Z,19.95
2023-05-03T10:06:27.168Z,20.16
2023-05-03T10:08:58.080Z,20.38
2023-05-03T10:11:31.114Z,20.52
2023-05-03T10:14:01.324Z,20.71
2023-05-03T10:16:32.711Z,20.93
2023-05-03T10:19:16.666Z,20.99
2023-05-03T10:22:07.732Z,21.15
2023-05-03T10:24:55.217Z,21.06
2023-05-03T10:27:21.903Z,21.04
2023-05-03T10:29:50.345Z,21.20
2023-05-03T10:32:39.912Z,21.11
2023-05-03T10:35:13.434Z,21.44
2023-05-03T10:37:47.487Z,21.39
2023-05-03T10:40:16.481Z,21.21
2023-05-03T10:42:52.321Z,21.29
2023-05-03T10:45:29.371Z,21.25
2023-05-03T10:48:13.779Z,21.49
2023-05-03T10:50:41.647Z,21.60
2023-05-03T10:53:10.039Z,21.46
2023-05-03T10:55:36.926Z,21.10
2023-05-03T10:58:04.012Z,21.17
2023-05-03T11:00:33.667Z,21.51
2023-05-03T11:03:18.587Z,21.77
2023-05-03T11:05:49.406Z,21.85
2023-05-03T11:08:18.296Z,21.87
2023-05-03T11:11:12.710Z,21.69
2023-05-03T11:13:41.546Z,21.80
2023-05-03T11:16:10.525Z,21.83
2023-05-03T11:18:37.153Z,21.75
2023-05-03T11:21:03.939Z,21.59
2023-05-03T11:23:30.592Z,21.82
2023-05-03T11:26:00.127Z,22.10
2023-05-03T11:28:26.772Z,22.15
2023-05-03T11:30:53.393Z,22.16
2023-05-03T11:33:20.819Z,22.06
2023-05-03T11:35:47.399Z,21.87
2023-05-03T11:38:14.142Z,21.76
2023-05-03T11:40:44.412Z,21.77
2023-05-03T11:43:11.493Z,21.70
2023-05-03T11:45:45.027Z,21.33
2023-05-03T11:48:13.180Z,21.28
2023-05-03T11:50:57.293Z,21.24
2023-05-03T11:53:25.751Z,21.22
2023-05-03T11:55:54.868Z,21.57
2023-05-03T11:58:26.891Z,21.75
2023-05-03T12:00:56.114Z,21.81
2023-05-03T12:03:31.095Z,22.12
2023-05-03T12:05:58.911Z,22.28
2023-05-03T12:08:34.811Z,22.02
2023-05-03T12:11:06.522Z,21.92
2023-05-03T12:13:38.893Z,21.96
2023-05-03T12:16:13.386Z,21.58
2023-05-03T12:18:51.022Z,21.44
2023-05-03T12:23:56.346Z,21.71
2023-05-03T12:26:26.569Z,21.70
2023-05-03T12:28:57.645Z,21.61
2023-05-03T12:31:24.563Z,21.39
2023-05-03T12:36:24.867Z,21.55
2023-05-03T12:38:56.071Z,21.74
2023-05-03T12:43:58.817Z,21.63
2023-05-03T12:46:34.812Z,21.38
2023-05-03T12:49:06.437Z,21.44
2023-05-03T12:51:34.308Z,21.29
2023-05-03T12:54:10.372Z,21.15
2023-05-03T12:56:41.460Z,21.29
2023-05-03T12:59:39.458Z,21.26
2023-05-03T13:06:59.488Z,20.78
2023-05-03T13:09:37.905Z,20.86
2023-05-03T13:12:18.575Z,20.97
2023-05-03T13:14:52.975Z,21.03
2023-05-03T13:17:22.396Z,21.12
2023-05-03T13:19:50.052Z,21.14
2023-05-03T13:22:17.536Z,21.39
2023-05-03T13:24:45.858Z,21.37
2023-05-03T13:27:12.545Z,21.19
2023-05-03T13:29:39.604Z,21.13
2023-05-03T13:32:06.328Z,20.98
2023-05-03T13:34:33.460Z,21.00
2023-05-03T13:37:01.211Z,21.04
2023-05-03T13:39:27.676Z,21.13
2023-05-03T13:41:54.216Z,21.08
2023-05-03T13:44:24.306Z,20.97
2023-05-03T13:46:52.302Z,20.90
2023-05-03T13:49:19.431Z,21.01
2023-05-03T13:51:45.978Z,21.10
2023-05-03T13:54:12.547Z,20.93
2023-05-03T13:56:39.163Z,20.75
2023-05-03T13:59:10.986Z,20.94
2023-05-03T14:01:38.035Z,21.08
2023-05-03T14:04:05.139Z,21.30
2023-05-03T14:06:33.665Z,21.41
2023-05-03T14:09:01.656Z,21.46
2023-05-03T14:11:30.201Z,21.52
2023-05-03T14:13:58.131Z,21.61
2023-05-03T14:18:56.055Z,21.74
2023-05-03T14:21:22.984Z,21.72
2023-05-03T14:23:53.682Z,21.70
2023-05-03T14:26:22.034Z,21.73
2023-05-03T14:28:48.629Z,21.71
2023-05-03T14:31:15.435Z,21.85
2023-05-03T14:33:42.139Z,21.82
2023-05-03T14:36:09.349Z,22.07
2023-05-03T14:38:37.207Z,22.01
2023-05-03T14:41:04.234Z,22.05
2023-05-03T14:43:31.524Z,21.95
2023-05-03T14:45:58.116Z,21.95
2023-05-03T14:48:24.588Z,21.98
2023-05-03T14:50:51.684Z,22.04
2023-05-03T14:53:18.270Z,22.11
2023-05-03T14:55:45.114Z,22.15
2023-05-03T14:58:16.117Z,22.15
2023-05-03T15:00:43.357Z,22.06
2023-05-03T15:03:12.030Z,22.08
2023-05-03T15:05:46.889Z,22.08
2023-05-03T15:08:15.216Z,22.17
2023-05-03T15:10:44.372Z,22.00
2023-05-03T15:13:17.812Z,22.19
2023-05-03T15:15:45.909Z,22.30
2023-05-03T15:18:15.667Z,22.33
2023-05-03T15:20:42.190Z,22.31
2023-05-03T15:23:08.650Z,22.28
2023-05-03T15:25:35.571Z,22.29
2023-05-03T15:28:04.254Z,22.29
2023-05-03T15:30:32.254Z,22.18
2023-05-03T15:32:58.909Z,21.95
2023-05-03T15:35:25.467Z,21.97
2023-05-03T15:37:52.178Z,22.00
2023-05-03T15:40:26.122Z,22.02
2023-05-03T15:42:53.478Z,22.06
2023-05-03T15:45:22.914Z,22.08
2023-05-03T15:47:49.456Z,22.04
2023-05-03T15:50:16.024Z,21.90
2023-05-03T15:52:42.781Z,21.80
2023-05-03T15:55:09.941Z,21.71
2023-05-03T15:57:37.292Z,21.67
2023-05-03T16:00:11.945Z,21.56
2023-05-03T16:02:40.149Z,21.56
2023-05-03T16:05:09.774Z,21.50
2023-05-03T16:07:36.553Z,21.42
2023-05-03T16:10:03.539Z,21.28
2023-05-03T16:12:30.261Z,21.03
2023-05-03T16:14:57.431Z,20.87
2023-05-03T16:17:25.710Z,20.83
2023-05-03T16:19:52.495Z,20.64
2023-05-03T16:22:18.971Z,20.60
2023-05-03T16:24:46.920Z,20.73
2023-05-03T16:27:15.872Z,20.71
2023-05-03T16:29:42.384Z,20.64
2023-05-03T16:32:10.820Z,20.50
2023-05-03T16:34:37.875Z,20.45
2023-05-03T16:37:04.520Z,20.29
2023-05-03T16:39:31.499Z,20.07
2023-05-03T16:41:58.125Z,19.73
2023-05-03T16:44:25.056Z,19.57
2023-05-03T16:46:51.868Z,19.31
2023-05-03T16:49:20.675Z,19.03
2023-05-03T16:51:47.259Z,19.05
2023-05-03T16:54:16.485Z,18.93
2023-05-03T16:56:44.196Z,18.77
2023-05-03T16:59:10.898Z,18.53
2023-05-03T17:01:37.609Z,18.35
2023-05-03T17:04:04.794Z,18.21
2023-05-03T17:06:31.418Z,17.97
2023-05-03T17:08:58.304Z,17.70
2023-05-03T17:11:25.042Z,17.45
2023-05-03T17:13:51.654Z,17.33
2023-05-03T17:16:18.293Z,17.04
2023-05-03T17:18:47.270Z,16.85
2023-05-03T17:21:16.575Z,16.68
2023-05-03T17:23:43.356Z,16.59
2023-05-03T17:26:11.775Z,16.56
2023-05-03T17:28:39.360Z,16.47
2023-05-03T17:31:07.040Z,16.31
2023-05-03T17:33:34.551Z,16.15
2023-05-03T17:36:04.441Z,15.98
2023-05-03T17:38:32.477Z,15.97
2023-05-03T17:41:10.440Z,15.95
2023-05-03T17:43:38.053Z,15.94
2023-05-03T17:46:12.096Z,15.85
2023-05-03T17:48:48.315Z,15.59
2023-05-03T17:51:15.226Z,15.53
2023-05-03T17:53:42.605Z,15.48
2023-05-03T17:56:16.813Z,15.41
2023-05-03T17:58:44.168Z,15.45
2023-05-03T18:01:11.291Z,15.22
2023-05-03T18:03:38.202Z,15.22
2023-05-03T18:06:13.423Z,15.23
2023-05-03T18:08:41.414Z,15.10
2023-05-03T18:11:08.101Z,15.04
2023-05-03T18:13:34.778Z,14.98
2023-05-03T18:16:01.822Z,14.83
2023-05-03T18:18:28.591Z,14.84
2023-05-03T18:21:03.542Z,14.71
2023-05-03T18:23:31.333Z,14.63
2023-05-03T18:25:58.149Z,14.45
2023-05-03T18:28:25.234Z,14.34
2023-05-03T18:31:00.170Z,14.20
2023-05-03T18:33:26.726Z,14.22
2023-05-03T18:35:56.415Z,14.00
2023-05-03T18:38:23.059Z,13.89
2023-05-03T18:40:54.147Z,13.75
2023-05-03T18:43:24.441Z,13.93
2023-05-03T18:45:54.027Z,13.62
2023-05-03T18:48:21.177Z,13.36
2023-05-03T18:50:48.056Z,13.51
2023-05-03T18:53:14.914Z,13.43
2023-05-03T18:55:42.483Z,13.44
2023-05-03T18:58:09.013Z,13.35
2023-05-03T19:00:35.561Z,13.20
2023-05-03T19:03:02.217Z,13.20
2023-05-03T19:05:28.992Z,13.04
2023-05-03T19:07:55.562Z,13.08
2023-05-03T19:10:22.225Z,12.94
2023-05-03T19:12:53.679Z,12.80
2023-05-03T19:15:21.065Z,12.93
2023-05-03T19:17:47.784Z,12.73
2023-05-03T19:20:17.420Z,12.74
2023-05-03T19:22:46.339Z,12.62
2023-05-03T19:25:12.873Z,12.53
2023-05-03T19:27:39.497Z,12.62
2023-05-03T19:30:07.492Z,12.55
2023-05-03T19:32:38.806Z,12.50
2023-05-03T19:35:08.803Z,12.52
2023-05-03T19:37:35.636Z,12.43
2023-05-03T19:40:02.546Z,12.27
2023-05-03T19:42:29.661Z,12.24
2023-05-03T19:44:56.312Z,12.26
2023-05-03T19:47:23.146Z,12.17
2023-05-03T19:49:49.859Z,12.07
2023-05-03T19:52:16.339Z,12.04
2023-05-03T19:54:42.922Z,11.96
2023-05-03T19:57:09.475Z,12.03
2023-05-03T19:59:36.194Z,11.86
2023-05-03T20:02:03.239Z,11.90
2023-05-03T20:04:29.965Z,11.87
2023-05-03T20:07:00.271Z,11.78
2023-05-03T20:09:26.741Z,11.67
2023-05-03T20:11:58.841Z,11.74
2023-05-03T20:14:28.876Z,11.64
2023-05-03T20:16:57.982Z,11.48
2023-05-03T20:19:25.951Z,11.74
2023-05-03T20:21:53.199Z,11.59
2023-05-03T20:24:23.080Z,11.52
2023-05-03T20:26:49.593Z,11.54
2023-05-03T20:29:16.295Z,11.39
2023-05-03T20:31:43.433Z,11.40
2023-05-03T20:34:11.051Z,11.34
2023-05-03T20:36:38.328Z,11.33
2023-05-03T20:39:05.446Z,11.29
2023-05-03T20:41:32.363Z,11.18
2023-05-03T20:43:59.529Z,11.21
2023-05-03T20:46:26.900Z,11.26
2023-05-03T20:48:53.561Z,11.17
2023-05-03T20:51:22.429Z,11.24
2023-05-03T20:53:49.083Z,11.26
2023-05-03T20:56:19.270Z,11.10
2023-05-03T20:58:45.912Z,10.95
2023-05-03T21:01:14.809Z,11.07
2023-05-03T21:03:41.496Z,11.12
2023-05-03T21:06:08.333Z,11.05
2023-05-03T21:08:35.850Z,10.98
2023-05-03T21:11:04.057Z,10.96
2023-05-03T21:13:31.332Z,10.88
2023-05-03T21:15:57.934Z,10.90
2023-05-03T21:18:25.338Z,10.88
2023-05-03T21:20:53.532Z,10.85
2023-05-03T21:23:20.611Z,10.80
2023-05-03T21:25:47.157Z,10.91
2023-05-03T21:28:13.837Z,10.74
2023-05-03T21:30:42.230Z,10.67
2023-05-03T21:33:08.939Z,10.75
2023-05-03T21:35:35.905Z,10.85
2023-05-03T21:38:02.414Z,10.62
2023-05-03T21:40:28.939Z,10.58
2023-05-03T21:42:55.571Z,10.74
2023-05-03T21:45:23.209Z,10.81
2023-05-03T21:47:52.294Z,10.66
2023-05-03T21:50:19.624Z,10.72
2023-05-03T21:52:46.247Z,10.62
2023-05-03T21:55:12.996Z,10.67
2023-05-03T21:57:39.678Z,10.71
2023-05-03T22:00:10.067Z,10.54
2023-05-03T22:02:36.737Z,10.41
2023-05-03T22:05:03.438Z,10.52
2023-05-03T22:07:29.978Z,10.50
2023-05-03T22:09:56.593Z,10.43
2023-05-03T22:12:24.514Z,10.48
2023-05-03T22:14:51.667Z,10.47
2023-05-03T22:17:18.984Z,10.51
2023-05-03T22:19:48.854Z,10.38
2023-05-03T22:22:15.639Z,10.30
2023-05-03T22:24:42.240Z,10.45
2023-05-03T22:27:08.719Z,10.37
2023-05-03T22:29:35.377Z,10.43
2023-05-03T22:32:01.879Z,10.46
2023-05-03T22:34:29.285Z,10.37
2023-05-03T22:36:56.015Z,10.35
2023-05-03T22:39:22.674Z,10.37
2023-05-03T22:41:49.147Z,10.33
2023-05-03T22:44:15.770Z,10.35
2023-05-03T22:46:42.776Z,10.31
2023-05-03T22:49:09.327Z,10.30
2023-05-03T22:51:38.156Z,10.43
2023-05-03T22:54:04.839Z,10.40
2023-05-03T22:56:31.438Z,10.39
2023-05-03T22:58:57.986Z,10.38
2023-05-03T23:01:26.597Z,10.31
2023-05-03T23:03:53.657Z,10.34
2023-05-03T23:06:20.481Z,10.33
2023-05-03T23:08:49.858Z,10.24
2023-05-03T23:11:16.463Z,10.31
2023-05-03T23:13:43.315Z,10.26
2023-05-03T23:16:10.478Z,10.20
2023-05-03T23:18:37.326Z,10.35
2023-05-03T23:21:06.623Z,10.30
2023-05-03T23:23:33.125Z,10.32
2023-05-03T23:25:59.692Z,10.37
2023-05-03T23:28:26.452Z,10.23
2023-05-03T23:30:55.646Z,10.35
2023-05-03T23:33:22.919Z,10.21
2023-05-03T23:35:49.862Z,10.22
2023-05-03T23:38:16.373Z,10.28
2023-05-03T23:40:42.899Z,10.16
2023-05-03T23:43:09.476Z,10.32
2023-05-03T23:45:36.059Z,10.32
2023-05-03T23:48:02.930Z,10.28
2023-05-03T23:50:29.448Z,10.30
2023-05-03T23:52:56.036Z,10.26
2023-05-03T23:55:22.528Z,10.34
2023-05-03T23:57:51.318Z,10.33
